• Join FlightAware (Why Join?)
  • Login
  • US Flag 
11:26AM EDT


 

Airport Tracker/Info


-or-


 

Live Flight TrackerFlight Track Log ✈ AAL1554 ✈ 14-Jun-2013 ✈ KDFW - KBWI

Flight Track Log - Related Links

Times and Time Zones

All times are in EDT time to prevent confusion due to time zone crossing. See the AAL1554 flight status page for this flight to view local times or setup timezone preferences in your user account.

Time Position Orientation Groundspeed Altitude Reporting Facility
EDT Latitude Longitude Course Direction KTS MPH feet Rate Location/Type
08:20PM 32.8833 -97.0333 53° Northeast 195 224 1,200  Level Dallas / Fort Worth TRACON
08:21PM 32.8167 -97.0167 168° South 243 280 3,100 2,040 Climbing Dallas / Fort Worth TRACON
08:22PM 32.7663 -96.8518 77° East  Level FlightAware Approximate
08:22PM 32.7667 -96.9667 140° Southeast 265 305 5,800  Level Dallas / Fort Worth TRACON
08:23PM 32.8219 -96.7283 53° Northeast  Level FlightAware Approximate
08:23PM 32.8000 -96.8833 65° Northeast 293 337 8,200  Level Dallas / Fort Worth TRACON
08:24PM 32.8967 -96.6133 52° Northeast  Level FlightAware Approximate
08:24PM 32.8333 -96.8000 65° Northeast 296 341 10,900  Level Dallas / Fort Worth TRACON
08:25PM 32.9721 -96.4987 53° Northeast  Level FlightAware Approximate
08:26PM 32.9414 -96.6014 57° Northeast 362 417 14,700  Level Fort Worth Center
08:27PM 33.0075 -96.4794 57° Northeast 379 436 17,100 1,980 Climbing Fort Worth Center
08:28PM 33.0608 -96.3772 58° Northeast 395 455 18,700 1,920 Climbing Fort Worth Center
08:29PM 33.1119 -96.2403 66° East 401 461 21,000 1,800 Climbing Fort Worth Center
08:30PM 33.1461 -96.1183 71° East 418 481 22,400 1,500 Climbing Fort Worth Center
08:31PM 33.1864 -95.9811 71° East 432 497 24,000 1,920 Climbing Fort Worth Center
08:32PM 33.2286 -95.8389 70° East 438 504 26,300 1,500 Climbing Fort Worth Center
08:33PM 33.2683 -95.7017 71° East 438 504 27,000 900 Climbing Fort Worth Center
08:34PM 33.3022 -95.5717 73° East 433 498 28,100 900 Climbing Fort Worth Center
08:35PM 33.3439 -95.4342 70° East 426 490 28,900 600 Climbing Fort Worth Center
08:36PM 33.3872 -95.2839 71° East 444 511 29,300 780 Climbing Fort Worth Center
08:37PM 33.4347 -95.1283 70° East 472 543 30,500 1,380 Climbing Fort Worth Center
08:38PM 33.4797 -94.9753 71° East 484 557 32,100 1,200 Climbing Fort Worth Center
08:39PM 33.5206 -94.8247 72° East 484 557 33,000 420 Climbing Fort Worth Center
08:40PM 33.5656 -94.6739 70° East 479 551 33,000  Level Fort Worth Center
08:42PM 33.7331 -94.4261 51° Northeast 478 550 33,000  Level Memphis Center
08:43PM 33.8161 -94.3075 50° Northeast 478 550 33,000  Level Memphis Center
08:44PM 33.8992 -94.1836 51° Northeast 473 544 33,000 600 Level Memphis Center
08:45PM 33.9822 -94.0644 50° Northeast 468 539 34,200 960 Climbing Memphis Center
08:46PM 34.0669 -93.9428 50° Northeast 463 533 35,000 360 Climbing Memphis Center
08:47PM 34.1497 -93.8183 51° Northeast 468 539 35,000  Level Memphis Center
08:48PM 34.2325 -93.6983 50° Northeast 468 539 35,000  Level Memphis Center
08:49PM 34.2975 -93.6006 51° Northeast 468 539 35,000  Level Memphis Center
08:50PM 34.3867 -93.4653 51° Northeast 463 533 35,000  Level Memphis Center
08:51PM 34.4711 -93.3425 50° Northeast 463 533 35,000 240 Level Memphis Center
08:52PM 34.5511 -93.2192 52° Northeast 463 533 35,500 840 Climbing Memphis Center
08:53PM 34.6311 -93.0983 51° Northeast 463 533 36,700 720 Climbing Memphis Center
08:54PM 34.7089 -92.9744 53° Northeast 463 533 37,000 120 Climbing Memphis Center
08:55PM 34.7906 -92.8556 50° Northeast 457 526 37,000  Level Memphis Center
08:56PM 34.8722 -92.7314 51° Northeast 457 526 37,000  Level Memphis Center
08:57PM 34.9700 -92.6303 40° Northeast 457 526 37,000  Level Memphis Center
08:58PM 35.0844 -92.5292 36° Northeast 458 527 37,000  Level Memphis Center
08:59PM 35.1842 -92.4403 36° Northeast 453 521 37,000  Level Memphis Center
09:00PM 35.2878 -92.3489 36° Northeast 453 521 37,000  Level Memphis Center
09:01PM 35.3892 -92.2569 36° Northeast 453 521 37,000  Level Memphis Center
09:02PM 35.4886 -92.1650 37° Northeast 453 521 37,000  Level Memphis Center
09:03PM 35.5656 -92.0389 53° Northeast 453 521 37,000  Level Memphis Center
09:04PM 35.6403 -91.9128 54° Northeast 453 521 37,000  Level Memphis Center
09:05PM 35.7147 -91.7839 55° Northeast 453 521 37,000  Level Memphis Center
09:06PM 35.7933 -91.6547 53° Northeast 458 527 37,000  Level Memphis Center
09:07PM 35.8656 -91.5250 55° Northeast 458 527 37,000  Level Memphis Center
09:08PM 35.9311 -91.4131 54° Northeast 458 527 37,000  Level Memphis Center
09:09PM 36.0031 -91.2806 56° Northeast 453 521 37,000  Level Memphis Center
09:10PM 36.0789 -91.1481 55° Northeast 465 535 37,000  Level Memphis Center
09:11PM 36.1547 -91.0203 54° Northeast 465 535 37,000  Level Memphis Center
09:12PM 36.2283 -90.8894 55° Northeast 465 535 37,000  Level Memphis Center
09:13PM 36.3019 -90.7614 54° Northeast 465 535 37,000  Level Memphis Center
09:14PM 36.3772 -90.6275 55° Northeast 465 535 37,000  Level Memphis Center
09:15PM 36.4503 -90.4989 55° Northeast 465 535 37,000  Level Memphis Center
09:16PM 36.5256 -90.3697 54° Northeast 465 535 37,000  Level Memphis Center
09:17PM 36.5983 -90.2406 55° Northeast 465 535 37,000  Level Memphis Center
09:18PM 36.6711 -90.1111 55° Northeast 465 535 37,000  Level Memphis Center
09:19PM 36.7458 -89.9789 55° Northeast 465 535 37,000  Level Memphis Center
09:20PM 36.8203 -89.8464 55° Northeast 465 535 37,000  Level Memphis Center
09:21PM 36.8947 -89.7083 56° Northeast 465 535 37,000  Level Memphis Center
09:22PM 36.9689 -89.5728 56° Northeast 470 541 37,000  Level Memphis Center
09:23PM 37.0450 -89.4369 55° Northeast 470 541 37,000  Level Memphis Center
09:24PM 37.1231 -89.2903 56° Northeast 470 541 37,000  Level Memphis Center
09:25PM 37.1989 -89.1539 55° Northeast 470 541 37,000  Level Memphis Center
09:26PM 37.2706 -89.0197 56° Northeast 470 541 37,000  Level Memphis Center
09:27PM 37.3419 -88.8856 56° Northeast 470 541 37,000  Level Memphis Center
09:28PM 37.4131 -88.7486 57° Northeast 470 541 37,000  Level Memphis Center
09:31PM 37.5764 -88.4325 57° Northeast 464 534 37,000  Level Indianapolis Center
09:32PM 37.6489 -88.2978 56° Northeast 463 533 37,000  Level Indianapolis Center
09:33PM 37.7258 -88.1511 56° Northeast 462 532 37,000  Level Indianapolis Center
09:34PM 37.7914 -88.0244 57° Northeast 465 535 37,000  Level Indianapolis Center
09:35PM 37.8767 -87.8614 56° Northeast 463 533 37,000  Level Indianapolis Center
09:36PM 37.9453 -87.7219 58° Northeast 466 536 37,000  Level Indianapolis Center
09:37PM 37.9997 -87.5708 65° Northeast 469 540 37,000  Level Indianapolis Center
09:38PM 38.0567 -87.4181 65° Northeast 477 549 37,000  Level Indianapolis Center
09:39PM 38.1114 -87.2681 65° Northeast 472 543 37,000  Level Indianapolis Center
09:40PM 38.1653 -87.1186 65° Northeast 471 542 37,000  Level Indianapolis Center
09:41PM 38.2275 -86.9492 65° Northeast 473 544 37,000  Level Indianapolis Center
09:42PM 38.2836 -86.7939 65° Northeast 468 539 37,000  Level Indianapolis Center
09:43PM 38.3372 -86.6461 65° Northeast 462 532 37,000  Level Indianapolis Center
09:44PM 38.3908 -86.4969 65° Northeast 464 534 37,000  Level Indianapolis Center
09:45PM 38.4444 -86.3461 66° East 465 535 37,000  Level Indianapolis Center
09:46PM 38.4989 -86.1972 65° Northeast 463 533 37,000  Level Indianapolis Center
09:47PM 38.5511 -86.0469 66° East 464 534 37,000  Level Indianapolis Center
09:48PM 38.6047 -85.8972 65° Northeast 463 533 37,000  Level Indianapolis Center
09:49PM 38.6628 -85.7297 66° East 462 532 37,000  Level Indianapolis Center
09:50PM 38.7150 -85.5797 66° East 464 534 37,000  Level Indianapolis Center
09:51PM 38.7678 -85.4300 66° East 465 535 37,000  Level Indianapolis Center
09:52PM 38.8192 -85.2794 66° East 462 532 37,000  Level Indianapolis Center
09:53PM 38.8714 -85.1278 66° East 467 537 37,000  Level Indianapolis Center
09:54PM 38.9231 -84.9761 66° East 467 537 37,000  Level Indianapolis Center
09:55PM 38.9736 -84.8236 67° East 469 540 37,000  Level Indianapolis Center
09:56PM 39.0356 -84.6403 66° East 475 547 37,000  Level Indianapolis Center
09:57PM 39.0781 -84.4769 71° East 477 549 37,000  Level Indianapolis Center
09:58PM 39.1231 -84.3150 70° East 478 550 37,000  Level Indianapolis Center
09:59PM 39.1675 -84.1522 71° East 479 551 37,000 -60 Level Indianapolis Center
10:00PM 39.2111 -83.9906 71° East 476 548 36,900  Descending Indianapolis Center
10:01PM 39.2542 -83.8319 71° East 468 539 37,000  Climbing Indianapolis Center
10:02PM 39.2967 -83.6711 71° East 471 542 36,900  Descending Indianapolis Center
10:03PM 39.3392 -83.5111 71° East 471 542 37,000  Climbing Indianapolis Center
10:04PM 39.3811 -83.3503 71° East 471 542 36,900  Descending Indianapolis Center
10:05PM 39.4242 -83.1892 71° East 474 545 37,000  Climbing Indianapolis Center
10:06PM 39.4667 -83.0264 71° East 475 547 36,900  Descending Indianapolis Center
10:07PM 39.5081 -82.8642 72° East 475 547 37,000  Climbing Indianapolis Center
10:08PM 39.5503 -82.7025 71° East 473 544 36,900  Descending Indianapolis Center
10:09PM 39.5989 -82.5128 72° East 473 544 37,000  Climbing Indianapolis Center
10:10PM 39.6403 -82.3497 72° East 473 544 37,000  Level Indianapolis Center
10:12PM 39.6811 -82.1878 72° East 469 540 37,000  Level Indianapolis Center
10:13PM 39.7219 -82.0244 72° East 472 543 37,000 -60 Level Indianapolis Center
10:14PM 39.7631 -81.8622 72° East 470 541 36,900 -60 Descending Indianapolis Center
10:15PM 39.8022 -81.7006 72° East 467 537 36,900  Level Indianapolis Center
10:16PM 39.8417 -81.5389 72° East 467 537 37,000  Climbing Indianapolis Center
10:17PM 39.8681 -81.3831 78° East 483 556 37,000  Level Indianapolis Center
10:18PM 39.8544 -81.2028 96° East 497 572 37,000  Level Indianapolis Center
10:19PM 39.8400 -81.0211 96° East 503 579 37,000  Level Indianapolis Center
10:20PM 39.8250 -80.8403 96° East 503 579 37,000  Level Indianapolis Center
10:21PM 39.8100 -80.6594 96° East 500 575 37,000  Level Indianapolis Center
10:22PM 39.7906 -80.4444 97° East 497 572 37,000  Level Indianapolis Center
10:23PM 39.7736 -80.2669 97° East 494 568 37,000  Level Indianapolis Center
10:24PM 39.7575 -80.0906 97° East 492 566 37,000  Level Indianapolis Center
10:24PM 39.7522 -79.9908 94° East 489 563 37,000 -660 Level Washington Center
10:25PM 39.7356 -79.8144 97° East 489 563 36,000 -1,980 Descending Washington Center
10:26PM 39.7186 -79.6436 97° East 484 557 33,100 -3,000 Descending Washington Center
10:27PM 39.7014 -79.4700 97° East 484 557 30,200 -2,700 Descending Washington Center
10:28PM 39.6839 -79.2992 98° East 484 557 27,900 -2,220 Descending Washington Center
10:29PM 39.6678 -79.1367 97° East 471 542 25,700 -1,500 Descending Washington Center
10:30PM 39.6408 -78.9869 103° East 448 516 24,900 -1,380 Descending Washington Center
10:31PM 39.6094 -78.8453 106° East 443 510 23,100 -1,920 Descending Washington Center
10:32PM 39.5758 -78.6931 106° East 438 504 21,100 -1,980 Descending Washington Center
10:33PM 39.5439 -78.5519 106° East 427 491 19,100 -1,740 Descending Washington Center
10:34PM 39.5139 -78.4161 106° East 406 467 17,600 -1,620 Descending Washington Center
10:35PM 39.4836 -78.2831 106° East 395 455 15,900 -1,320 Descending Washington Center
10:36PM 39.4553 -78.1531 106° East 382 440 15,100 -420 Descending Washington Center
10:37PM 39.4244 -78.0231 107° East 382 440 15,100 -480 Level Washington Center
10:38PM 39.4228 -77.8939 91° East 370 426 14,200 -1,140 Descending Washington Center
10:39PM 39.4294 -77.7653 86° East 359 413 12,900 -1,260 Descending Washington Center
10:40PM 39.4339 -77.6392 87° East 354 407 11,800 -960 Descending Washington Center
10:41PM 39.4400 -77.5156 86° East 348 400 11,100 -360 Descending Washington Center
10:42PM 39.4439 -77.3947 88° East 341 392 11,100 -120 Level Washington Center
10:43PM 39.4500 -77.3333 83° East 338 389 11,000 -120 Descending Potomac TRACON
10:44PM 39.4667 -77.2333 78° East 331 381 11,000 -180 Level Potomac TRACON
10:45PM 39.4667 -77.1167 90° East 323 372 10,700 -780 Descending Potomac TRACON
10:45PM 39.4500 -77.0167 102° East 296 341 9,600 -1,200 Descending Potomac TRACON
10:46PM 39.4333 -76.9167 102° East 288 331 8,500 -1,260 Descending Potomac TRACON
10:47PM 39.4167 -76.8333 104° East 280 322 7,300 -1,200 Descending Potomac TRACON
10:48PM 39.4000 -76.7167 100° East 282 325 6,100 -1,020 Descending Potomac TRACON
10:49PM 39.3833 -76.6333 104° East 277 319 5,300 -720 Descending Potomac TRACON
10:50PM 39.3333 -76.5667 134° Southeast 287 330 4,800 -660 Descending Potomac TRACON
10:51PM 39.2500 -76.5333 163° South 266 306 4,000 -900 Descending Potomac TRACON
10:52PM 39.1833 -76.5167 169° South 240 276 3,000 -960 Descending Potomac TRACON
10:53PM 39.1167 -76.5000 169° South 227 261 2,100 -900 Descending Potomac TRACON